sensor_id;sensor_type;location;lat;lon;timestamp;pressure;altitude;pressure_sealevel;temperature
24714;BMP280;12820;51.580;5.010;2023-02-28T00:04:21;103088.25;;;4.39
24714;BMP280;12820;51.580;5.010;2023-02-28T00:09:23;103083.94;;;4.35
24714;BMP280;12820;51.580;5.010;2023-02-28T00:14:25;103074.53;;;4.30
24714;BMP280;12820;51.580;5.010;2023-02-28T00:19:27;103086.06;;;4.28
24714;BMP280;12820;51.580;5.010;2023-02-28T00:24:30;103069.28;;;4.24
24714;BMP280;12820;51.580;5.010;2023-02-28T00:29:32;103084.09;;;4.21
24714;BMP280;12820;51.580;5.010;2023-02-28T00:34:34;103077.25;;;4.17
24714;BMP280;12820;51.580;5.010;2023-02-28T00:39:40;103072.13;;;4.14
24714;BMP280;12820;51.580;5.010;2023-02-28T00:44:42;103065.44;;;4.13
24714;BMP280;12820;51.580;5.010;2023-02-28T00:49:46;103078.53;;;4.09
24714;BMP280;12820;51.580;5.010;2023-02-28T00:54:48;103069.13;;;4.04
24714;BMP280;12820;51.580;5.010;2023-02-28T00:59:50;103072.28;;;4.00
24714;BMP280;12820;51.580;5.010;2023-02-28T01:04:52;103065.47;;;3.96
24714;BMP280;12820;51.580;5.010;2023-02-28T01:09:55;103073.69;;;3.95
24714;BMP280;12820;51.580;5.010;2023-02-28T01:14:59;103087.00;;;3.96
24714;BMP280;12820;51.580;5.010;2023-02-28T01:20:02;103085.38;;;3.96
24714;BMP280;12820;51.580;5.010;2023-02-28T01:25:05;103079.59;;;3.97
24714;BMP280;12820;51.580;5.010;2023-02-28T01:30:08;103082.31;;;4.02
24714;BMP280;12820;51.580;5.010;2023-02-28T01:35:11;103089.81;;;4.03
24714;BMP280;12820;51.580;5.010;2023-02-28T01:40:13;103084.06;;;4.04
24714;BMP280;12820;51.580;5.010;2023-02-28T01:45:28;103083.22;;;4.04
24714;BMP280;12820;51.580;5.010;2023-02-28T01:50:34;103088.16;;;4.02
24714;BMP280;12820;51.580;5.010;2023-02-28T01:55:37;103080.50;;;3.99
24714;BMP280;12820;51.580;5.010;2023-02-28T02:00:41;103086.34;;;4.00
24714;BMP280;12820;51.580;5.010;2023-02-28T02:05:45;103077.38;;;4.03
24714;BMP280;12820;51.580;5.010;2023-02-28T02:10:52;103069.31;;;4.07
24714;BMP280;12820;51.580;5.010;2023-02-28T02:26:54;103061.03;;;4.25
24714;BMP280;12820;51.580;5.010;2023-02-28T02:37:44;103059.16;;;4.38
24714;BMP280;12820;51.580;5.010;2023-02-28T02:43:07;103064.41;;;4.44
24714;BMP280;12820;51.580;5.010;2023-02-28T02:48:13;103057.16;;;4.48
24714;BMP280;12820;51.580;5.010;2023-02-28T02:53:19;103048.31;;;4.55
24714;BMP280;12820;51.580;5.010;2023-02-28T02:58:31;103051.88;;;4.60
24714;BMP280;12820;51.580;5.010;2023-02-28T03:03:34;103061.16;;;4.63
24714;BMP280;12820;51.580;5.010;2023-02-28T03:08:37;103055.53;;;4.67
24714;BMP280;12820;51.580;5.010;2023-02-28T03:35:24;103052.13;;;4.84
24714;BMP280;12820;51.580;5.010;2023-02-28T03:40:30;103055.53;;;4.86
24714;BMP280;12820;51.580;5.010;2023-02-28T03:45:35;103053.16;;;4.89
24714;BMP280;12820;51.580;5.010;2023-02-28T03:50:44;103059.06;;;4.91
24714;BMP280;12820;51.580;5.010;2023-02-28T03:55:54;103060.00;;;4.93
24714;BMP280;12820;51.580;5.010;2023-02-28T04:01:03;103065.97;;;4.96
24714;BMP280;12820;51.580;5.010;2023-02-28T04:06:15;103069.44;;;4.99
24714;BMP280;12820;51.580;5.010;2023-02-28T04:11:38;103064.53;;;5.01
24714;BMP280;12820;51.580;5.010;2023-02-28T04:16:41;103067.91;;;5.03
24714;BMP280;12820;51.580;5.010;2023-02-28T04:21:46;103064.59;;;5.02
24714;BMP280;12820;51.580;5.010;2023-02-28T04:26:51;103059.66;;;5.04
24714;BMP280;12820;51.580;5.010;2023-02-28T04:31:53;103060.50;;;5.04
24714;BMP280;12820;51.580;5.010;2023-02-28T04:36:56;103069.69;;;5.05
24714;BMP280;12820;51.580;5.010;2023-02-28T04:42:13;103064.72;;;5.05
24714;BMP280;12820;51.580;5.010;2023-02-28T04:47:16;103068.06;;;5.06
24714;BMP280;12820;51.580;5.010;2023-02-28T04:52:18;103085.50;;;5.06
24714;BMP280;12820;51.580;5.010;2023-02-28T04:57:20;103083.88;;;5.06
24714;BMP280;12820;51.580;5.010;2023-02-28T05:02:22;103095.56;;;5.07
24714;BMP280;12820;51.580;5.010;2023-02-28T05:07:25;103095.56;;;5.07
24714;BMP280;12820;51.580;5.010;2023-02-28T05:12:27;103087.22;;;5.07
24714;BMP280;12820;51.580;5.010;2023-02-28T05:17:30;103105.56;;;5.09
24714;BMP280;12820;51.580;5.010;2023-02-28T05:22:32;103095.59;;;5.09
24714;BMP280;12820;51.580;5.010;2023-02-28T05:27:34;103108.25;;;5.13
24714;BMP280;12820;51.580;5.010;2023-02-28T05:32:40;103100.78;;;5.13
24714;BMP280;12820;51.580;5.010;2023-02-28T05:37:44;103098.25;;;5.12
24714;BMP280;12820;51.580;5.010;2023-02-28T05:42:47;103113.19;;;5.12
24714;BMP280;12820;51.580;5.010;2023-02-28T05:47:49;103109.84;;;5.11
24714;BMP280;12820;51.580;5.010;2023-02-28T05:52:54;103112.34;;;5.11
24714;BMP280;12820;51.580;5.010;2023-02-28T05:57:57;103102.38;;;5.11
24714;BMP280;12820;51.580;5.010;2023-02-28T06:02:59;103089.91;;;5.11
24714;BMP280;12820;51.580;5.010;2023-02-28T06:08:04;103092.41;;;5.11
24714;BMP280;12820;51.580;5.010;2023-02-28T06:13:07;103099.88;;;5.11
24714;BMP280;12820;51.580;5.010;2023-02-28T06:18:10;103096.53;;;5.11
24714;BMP280;12820;51.580;5.010;2023-02-28T06:23:12;103096.53;;;5.11
24714;BMP280;12820;51.580;5.010;2023-02-28T06:28:14;103084.13;;;5.12
24714;BMP280;12820;51.580;5.010;2023-02-28T06:33:16;103103.25;;;5.13
24714;BMP280;12820;51.580;5.010;2023-02-28T06:38:18;103104.97;;;5.14
24714;BMP280;12820;51.580;5.010;2023-02-28T06:43:21;103102.63;;;5.17
24714;BMP280;12820;51.580;5.010;2023-02-28T06:48:23;103104.31;;;5.18
24714;BMP280;12820;51.580;5.010;2023-02-28T06:53:26;103092.78;;;5.20
24714;BMP280;12820;51.580;5.010;2023-02-28T06:58:28;103098.03;;;5.26
24714;BMP280;12820;51.580;5.010;2023-02-28T07:03:30;103110.63;;;5.29
24714;BMP280;12820;51.580;5.010;2023-02-28T07:08:35;103123.19;;;5.31
24714;BMP280;12820;51.580;5.010;2023-02-28T07:13:38;103124.25;;;5.36
24714;BMP280;12820;51.580;5.010;2023-02-28T07:18:40;103135.41;;;5.44
24714;BMP280;12820;51.580;5.010;2023-02-28T07:23:42;103129.81;;;5.49
24714;BMP280;12820;51.580;5.010;2023-02-28T07:28:46;103121.75;;;5.55
24714;BMP280;12820;51.580;5.010;2023-02-28T07:33:49;103131.31;;;5.65
24714;BMP280;12820;51.580;5.010;2023-02-28T07:38:51;103131.72;;;5.73
24714;BMP280;12820;51.580;5.010;2023-02-28T07:43:54;103127.09;;;5.82
24714;BMP280;12820;51.580;5.010;2023-02-28T07:48:57;103134.16;;;5.92
24714;BMP280;12820;51.580;5.010;2023-02-28T07:54:01;103134.78;;;6.06
24714;BMP280;12820;51.580;5.010;2023-02-28T07:59:03;103136.16;;;6.20
24714;BMP280;12820;51.580;5.010;2023-02-28T08:04:06;103141.97;;;6.40
24714;BMP280;12820;51.580;5.010;2023-02-28T08:09:08;103139.38;;;6.59
24714;BMP280;12820;51.580;5.010;2023-02-28T08:14:10;103135.84;;;6.75
24714;BMP280;12820;51.580;5.010;2023-02-28T08:19:12;103140.72;;;6.94
24714;BMP280;12820;51.580;5.010;2023-02-28T08:24:14;103131.41;;;7.13
24714;BMP280;12820;51.580;5.010;2023-02-28T08:29:16;103142.06;;;7.30
24714;BMP280;12820;51.580;5.010;2023-02-28T08:34:18;103130.84;;;7.43
24714;BMP280;12820;51.580;5.010;2023-02-28T08:39:20;103131.28;;;7.56
24714;BMP280;12820;51.580;5.010;2023-02-28T08:44:23;103123.38;;;7.68
24714;BMP280;12820;51.580;5.010;2023-02-28T08:49:25;103123.94;;;7.84
24714;BMP280;12820;51.580;5.010;2023-02-28T08:54:27;103118.34;;;7.93
24714;BMP280;12820;51.580;5.010;2023-02-28T08:59:32;103121.94;;;7.99
24714;BMP280;12820;51.580;5.010;2023-02-28T09:04:34;103124.75;;;8.08
24714;BMP280;12820;51.580;5.010;2023-02-28T09:09:37;103121.63;;;8.15
24714;BMP280;12820;51.580;5.010;2023-02-28T09:14:39;103130.56;;;8.33
24714;BMP280;12820;51.580;5.010;2023-02-28T09:19:41;103132.16;;;8.56
24714;BMP280;12820;51.580;5.010;2023-02-28T09:24:44;103121.13;;;8.79
24714;BMP280;12820;51.580;5.010;2023-02-28T09:29:46;103119.78;;;8.89
24714;BMP280;12820;51.580;5.010;2023-02-28T09:34:49;103129.50;;;8.79
24714;BMP280;12820;51.580;5.010;2023-02-28T09:39:51;103126.66;;;8.69
24714;BMP280;12820;51.580;5.010;2023-02-28T09:44:54;103125.63;;;8.61
24714;BMP280;12820;51.580;5.010;2023-02-28T09:50:01;103137.88;;;8.52
24714;BMP280;12820;51.580;5.010;2023-02-28T09:55:37;103129.78;;;8.35
24714;BMP280;12820;51.580;5.010;2023-02-28T10:01:02;103130.94;;;8.18
24714;BMP280;12820;51.580;5.010;2023-02-28T10:06:14;103125.38;;;8.01
24714;BMP280;12820;51.580;5.010;2023-02-28T10:11:19;103132.53;;;7.92
24714;BMP280;12820;51.580;5.010;2023-02-28T10:16:27;103126.38;;;7.83
24714;BMP280;12820;51.580;5.010;2023-02-28T10:21:37;103112.84;;;7.77
24714;BMP280;12820;51.580;5.010;2023-02-28T10:26:43;103113.47;;;7.71
24714;BMP280;12820;51.580;5.010;2023-02-28T10:31:46;103110.84;;;7.68
24714;BMP280;12820;51.580;5.010;2023-02-28T10:36:50;103109.91;;;7.65
24714;BMP280;12820;51.580;5.010;2023-02-28T10:41:52;103105.69;;;7.64
24714;BMP280;12820;51.580;5.010;2023-02-28T10:46:56;103104.03;;;7.63
24714;BMP280;12820;51.580;5.010;2023-02-28T10:52:00;103099.13;;;7.66
24714;BMP280;12820;51.580;5.010;2023-02-28T10:57:22;103099.19;;;7.69
24714;BMP280;12820;51.580;5.010;2023-02-28T11:02:35;103092.81;;;7.77
24714;BMP280;12820;51.580;5.010;2023-02-28T11:07:38;103088.03;;;7.84
24714;BMP280;12820;51.580;5.010;2023-02-28T11:12:55;103079.22;;;7.95
24714;BMP280;12820;51.580;5.010;2023-02-28T11:18:18;103076.03;;;8.26
24714;BMP280;12820;51.580;5.010;2023-02-28T11:23:24;103077.50;;;8.74
24714;BMP280;12820;51.580;5.010;2023-02-28T11:28:31;103070.75;;;9.62
24714;BMP280;12820;51.580;5.010;2023-02-28T11:33:53;103061.69;;;11.18
24714;BMP280;12820;51.580;5.010;2023-02-28T11:39:08;103047.09;;;12.57
24714;BMP280;12820;51.580;5.010;2023-02-28T11:49:49;103033.78;;;14.69
24714;BMP280;12820;51.580;5.010;2023-02-28T11:55:07;103035.66;;;15.44
24714;BMP280;12820;51.580;5.010;2023-02-28T12:05:46;103025.41;;;16.40
24714;BMP280;12820;51.580;5.010;2023-02-28T12:16:44;103004.72;;;17.10
24714;BMP280;12820;51.580;5.010;2023-02-28T12:27:27;102995.63;;;17.87
24714;BMP280;12820;51.580;5.010;2023-02-28T12:32:37;102996.00;;;18.30
24714;BMP280;12820;51.580;5.010;2023-02-28T12:37:44;102987.06;;;18.63
24714;BMP280;12820;51.580;5.010;2023-02-28T12:43:02;102991.00;;;18.87
24714;BMP280;12820;51.580;5.010;2023-02-28T12:48:09;102980.94;;;18.10
24714;BMP280;12820;51.580;5.010;2023-02-28T12:53:31;102973.13;;;17.42
24714;BMP280;12820;51.580;5.010;2023-02-28T12:58:45;102965.22;;;17.70
24714;BMP280;12820;51.580;5.010;2023-02-28T13:04:16;102960.88;;;18.52
24714;BMP280;12820;51.580;5.010;2023-02-28T13:09:25;102967.69;;;18.53
24714;BMP280;12820;51.580;5.010;2023-02-28T13:19:39;102932.63;;;21.25
24714;BMP280;12820;51.580;5.010;2023-02-28T13:24:48;102931.84;;;22.43
24714;BMP280;12820;51.580;5.010;2023-02-28T13:29:52;102927.31;;;23.57
24714;BMP280;12820;51.580;5.010;2023-02-28T13:40:31;102905.91;;;25.68
24714;BMP280;12820;51.580;5.010;2023-02-28T13:45:38;102908.41;;;26.61
24714;BMP280;12820;51.580;5.010;2023-02-28T14:01:21;102882.00;;;28.79
24714;BMP280;12820;51.580;5.010;2023-02-28T14:06:36;102883.97;;;29.60
24714;BMP280;12820;51.580;5.010;2023-02-28T14:11:41;102881.97;;;30.71
24714;BMP280;12820;51.580;5.010;2023-02-28T14:16:45;102869.72;;;31.84
24714;BMP280;12820;51.580;5.010;2023-02-28T14:27:00;102860.75;;;32.48
24714;BMP280;12820;51.580;5.010;2023-02-28T14:32:28;102859.66;;;32.50
24714;BMP280;12820;51.580;5.010;2023-02-28T14:37:37;102856.69;;;32.44
24714;BMP280;12820;51.580;5.010;2023-02-28T14:43:18;102854.28;;;32.41
24714;BMP280;12820;51.580;5.010;2023-02-28T14:48:09;102856.75;;;32.19
24714;BMP280;12820;51.580;5.010;2023-02-28T14:53:17;102851.19;;;32.01
24714;BMP280;12820;51.580;5.010;2023-02-28T14:58:27;102850.22;;;31.42
24714;BMP280;12820;51.580;5.010;2023-02-28T15:03:34;102847.66;;;30.67
24714;BMP280;12820;51.580;5.010;2023-02-28T15:08:37;102852.69;;;29.91
24714;BMP280;12820;51.580;5.010;2023-02-28T15:13:51;102844.56;;;29.13
24714;BMP280;12820;51.580;5.010;2023-02-28T15:18:59;102844.66;;;28.54
24714;BMP280;12820;51.580;5.010;2023-02-28T15:24:06;102854.91;;;28.11
24714;BMP280;12820;51.580;5.010;2023-02-28T15:29:20;102850.97;;;27.74
24714;BMP280;12820;51.580;5.010;2023-02-28T15:34:40;102860.25;;;27.13
24714;BMP280;12820;51.580;5.010;2023-02-28T15:39:45;102847.50;;;26.59
24714;BMP280;12820;51.580;5.010;2023-02-28T15:44:48;102856.91;;;26.24
24714;BMP280;12820;51.580;5.010;2023-02-28T15:49:58;102847.38;;;25.90
24714;BMP280;12820;51.580;5.010;2023-02-28T15:55:27;102860.13;;;24.34
24714;BMP280;12820;51.580;5.010;2023-02-28T16:00:30;102859.28;;;22.43
24714;BMP280;12820;51.580;5.010;2023-02-28T16:05:34;102862.56;;;20.97
24714;BMP280;12820;51.580;5.010;2023-02-28T16:10:39;102879.00;;;19.73
24714;BMP280;12820;51.580;5.010;2023-02-28T16:15:42;102869.78;;;18.70
24714;BMP280;12820;51.580;5.010;2023-02-28T16:20:45;102871.94;;;17.70
24714;BMP280;12820;51.580;5.010;2023-02-28T16:25:47;102877.06;;;16.78
24714;BMP280;12820;51.580;5.010;2023-02-28T16:30:53;102879.22;;;15.96
24714;BMP280;12820;51.580;5.010;2023-02-28T16:35:55;102883.59;;;15.24
24714;BMP280;12820;51.580;5.010;2023-02-28T16:40:59;102891.13;;;14.55
24714;BMP280;12820;51.580;5.010;2023-02-28T16:46:01;102893.44;;;13.92
24714;BMP280;12820;51.580;5.010;2023-02-28T16:51:08;102904.00;;;13.33
24714;BMP280;12820;51.580;5.010;2023-02-28T16:56:21;102922.09;;;12.85
24714;BMP280;12820;51.580;5.010;2023-02-28T17:01:24;102914.88;;;12.38
24714;BMP280;12820;51.580;5.010;2023-02-28T17:06:28;102916.03;;;11.95
24714;BMP280;12820;51.580;5.010;2023-02-28T17:11:31;102932.28;;;11.59
24714;BMP280;12820;51.580;5.010;2023-02-28T17:16:35;102930.03;;;11.25
24714;BMP280;12820;51.580;5.010;2023-02-28T17:21:38;102938.72;;;10.94
24714;BMP280;12820;51.580;5.010;2023-02-28T17:26:41;102949.94;;;10.65
24714;BMP280;12820;51.580;5.010;2023-02-28T17:31:43;102948.56;;;10.39
24714;BMP280;12820;51.580;5.010;2023-02-28T17:36:46;102954.75;;;10.13
24714;BMP280;12820;51.580;5.010;2023-02-28T17:41:53;102970.97;;;9.90
24714;BMP280;12820;51.580;5.010;2023-02-28T17:46:55;102969.59;;;9.67
24714;BMP280;12820;51.580;5.010;2023-02-28T17:51:57;102989.19;;;9.47
24714;BMP280;12820;51.580;5.010;2023-02-28T17:57:00;102982.03;;;9.28
24714;BMP280;12820;51.580;5.010;2023-02-28T18:02:02;102992.44;;;9.11
24714;BMP280;12820;51.580;5.010;2023-02-28T18:07:06;102999.56;;;8.95
24714;BMP280;12820;51.580;5.010;2023-02-28T18:12:09;102999.91;;;8.78
24714;BMP280;12820;51.580;5.010;2023-02-28T18:17:12;102998.63;;;8.63
24714;BMP280;12820;51.580;5.010;2023-02-28T18:22:14;103001.53;;;8.48
24714;BMP280;12820;51.580;5.010;2023-02-28T18:27:16;102996.97;;;8.34
24714;BMP280;12820;51.580;5.010;2023-02-28T18:32:18;103002.41;;;8.21
24714;BMP280;12820;51.580;5.010;2023-02-28T18:37:20;103006.16;;;8.06
24714;BMP280;12820;51.580;5.010;2023-02-28T18:42:22;103004.09;;;7.95
24714;BMP280;12820;51.580;5.010;2023-02-28T18:47:24;103007.97;;;7.85
24714;BMP280;12820;51.580;5.010;2023-02-28T18:52:27;103003.34;;;7.71
24714;BMP280;12820;51.580;5.010;2023-02-28T18:57:29;103005.50;;;7.61
24714;BMP280;12820;51.580;5.010;2023-02-28T19:02:31;103001.81;;;7.50
24714;BMP280;12820;51.580;5.010;2023-02-28T19:07:34;103006.44;;;7.39
24714;BMP280;12820;51.580;5.010;2023-02-28T19:12:37;103006.94;;;7.29
24714;BMP280;12820;51.580;5.010;2023-02-28T19:17:39;103009.03;;;7.17
24714;BMP280;12820;51.580;5.010;2023-02-28T19:22:41;103012.84;;;7.07
24714;BMP280;12820;51.580;5.010;2023-02-28T19:27:43;103021.66;;;6.97
24714;BMP280;12820;51.580;5.010;2023-02-28T19:32:47;103023.84;;;6.89
24714;BMP280;12820;51.580;5.010;2023-02-28T19:37:49;103017.69;;;6.79
24714;BMP280;12820;51.580;5.010;2023-02-28T19:42:53;103027.34;;;6.71
24714;BMP280;12820;51.580;5.010;2023-02-28T19:47:55;103047.09;;;6.63
24714;BMP280;12820;51.580;5.010;2023-02-28T19:52:57;103040.91;;;6.54
24714;BMP280;12820;51.580;5.010;2023-02-28T19:58:01;103043.13;;;6.47
24714;BMP280;12820;51.580;5.010;2023-02-28T20:03:03;103044.44;;;6.38
24714;BMP280;12820;51.580;5.010;2023-02-28T20:08:06;103039.97;;;6.29
24714;BMP280;12820;51.580;5.010;2023-02-28T20:13:08;103047.13;;;6.21
24714;BMP280;12820;51.580;5.010;2023-02-28T20:18:10;103035.97;;;6.13
24714;BMP280;12820;51.580;5.010;2023-02-28T20:23:12;103041.47;;;6.04
24714;BMP280;12820;51.580;5.010;2023-02-28T20:28:14;103037.84;;;5.97
24714;BMP280;12820;51.580;5.010;2023-02-28T20:33:17;103053.44;;;5.91
24714;BMP280;12820;51.580;5.010;2023-02-28T20:38:20;103049.84;;;5.85
24714;BMP280;12820;51.580;5.010;2023-02-28T20:43:22;103042.94;;;5.78
24714;BMP280;12820;51.580;5.010;2023-02-28T20:48:24;103048.47;;;5.71
24714;BMP280;12820;51.580;5.010;2023-02-28T20:53:27;103044.00;;;5.65
24714;BMP280;12820;51.580;5.010;2023-02-28T20:58:31;103036.25;;;5.59
24714;BMP280;12820;51.580;5.010;2023-02-28T21:03:34;103040.22;;;5.54
24714;BMP280;12820;51.580;5.010;2023-02-28T21:08:38;103040.75;;;5.47
24714;BMP280;12820;51.580;5.010;2023-02-28T21:13:42;103042.28;;;5.44
24714;BMP280;12820;51.580;5.010;2023-02-28T21:18:44;103052.06;;;5.39
24714;BMP280;12820;51.580;5.010;2023-02-28T21:23:47;103056.81;;;5.33
24714;BMP280;12820;51.580;5.010;2023-02-28T21:28:52;103057.41;;;5.28
24714;BMP280;12820;51.580;5.010;2023-02-28T21:33:56;103061.25;;;5.22
24714;BMP280;12820;51.580;5.010;2023-02-28T21:39:01;103061.06;;;5.17
24714;BMP280;12820;51.580;5.010;2023-02-28T21:44:04;103051.72;;;5.12
24714;BMP280;12820;51.580;5.010;2023-02-28T21:49:06;103052.38;;;5.08
24714;BMP280;12820;51.580;5.010;2023-02-28T21:54:09;103045.56;;;5.04
24714;BMP280;12820;51.580;5.010;2023-02-28T21:59:11;103049.44;;;4.98
24714;BMP280;12820;51.580;5.010;2023-02-28T22:04:15;103049.19;;;4.92
24714;BMP280;12820;51.580;5.010;2023-02-28T22:09:24;103048.13;;;4.87
24714;BMP280;12820;51.580;5.010;2023-02-28T22:14:27;103048.72;;;4.82
24714;BMP280;12820;51.580;5.010;2023-02-28T22:19:29;103057.72;;;4.78
24714;BMP280;12820;51.580;5.010;2023-02-28T22:24:31;103060.00;;;4.74
24714;BMP280;12820;51.580;5.010;2023-02-28T22:29:33;103059.84;;;4.71
24714;BMP280;12820;51.580;5.010;2023-02-28T22:34:35;103061.22;;;4.65
24714;BMP280;12820;51.580;5.010;2023-02-28T22:39:38;103061.09;;;4.62
24714;BMP280;12820;51.580;5.010;2023-02-28T22:44:40;103058.41;;;4.58
24714;BMP280;12820;51.580;5.010;2023-02-28T22:49:42;103081.56;;;4.55
24714;BMP280;12820;51.580;5.010;2023-02-28T22:54:48;103075.50;;;4.50
24714;BMP280;12820;51.580;5.010;2023-02-28T22:59:50;103078.63;;;4.46
24714;BMP280;12820;51.580;5.010;2023-02-28T23:04:55;103083.47;;;4.43
24714;BMP280;12820;51.580;5.010;2023-02-28T23:09:58;103082.50;;;4.40
24714;BMP280;12820;51.580;5.010;2023-02-28T23:15:00;103079.94;;;4.39
24714;BMP280;12820;51.580;5.010;2023-02-28T23:20:02;103082.13;;;4.33
24714;BMP280;12820;51.580;5.010;2023-02-28T23:25:05;103079.53;;;4.30
24714;BMP280;12820;51.580;5.010;2023-02-28T23:30:08;103075.22;;;4.27
24714;BMP280;12820;51.580;5.010;2023-02-28T23:35:11;103076.66;;;4.23
24714;BMP280;12820;51.580;5.010;2023-02-28T23:40:14;103062.38;;;4.19
24714;BMP280;12820;51.580;5.010;2023-02-28T23:45:18;103064.75;;;4.16
24714;BMP280;12820;51.580;5.010;2023-02-28T23:50:20;103067.06;;;4.13
24714;BMP280;12820;51.580;5.010;2023-02-28T23:55:22;103070.19;;;4.09
